KHFD/HFD METAR and TAF weather

Enter ICAO airport designator
Station Type Date Time Source
KHFD METAR 2022/06/30 01:53 UTC NOAA

KHFD 300153Z 19005KT 10SM FEW070 SCT110 23/14 A3015 RMK AO2 SLP210 T02280139


Station Type Date Time Source
KHFD Decoded METAR 2022/06/30 01:53 UTC NOAA

HARTFORD-BRAINARD AIRPORT, CT, United States (KHFD) 41-44N 072-39W 4M
Jun 29, 2022 - 09:53 PM EDT / 2022.06.30 0153 UTC
Wind: from the S (190 degrees) at 6 MPH (5 KT):0
Visibility: 10 mile(s):0
Sky conditions: partly cloudy
Temperature: 73.0 F (22.8 C)
Dew Point: 57.0 F (13.9 C)
Relative Humidity: 57%
Pressure (altimeter): 30.15 in. Hg (1020 hPa)
ob: KHFD 300153Z 19005KT 10SM FEW070 SCT110 23/14 A3015 RMK AO2 SLP210 T02280139
cycle: 2

Station Type Date Time Source
KHFD TAF UTC NOAA

Error!

Example: see airport list